Time;durP1;ratioP1;P1;durP2;ratioP2;P2;SDS_P1;SDS_P2;PMS_P1;PMS_P2;Temp;Humidity;BMP_temperature;BMP_pressure;BME280_temperature;BME280_humidity;BME280_pressure;Samples;Min_cycle;Max_cycle;Signal;HPM_P1;HPM_P2
2021/11/08 00:00:28;;;;;;;8.48;6.22;;;5.50;99.90;;;;;;4769708;30;20079;-88
2021/11/08 00:03:00;;;;;;;8.50;7.68;;;5.50;99.90;;;;;;4769330;29;20062;-87
2021/11/08 00:05:29;;;;;;;9.80;7.30;;;5.50;99.90;;;;;;4769757;30;20126;-84
2021/11/08 00:08:02;;;;;;;9.85;7.13;;;5.50;99.90;;;;;;4768869;30;20383;-84
2021/11/08 00:10:33;;;;;;;8.27;6.90;;;5.50;99.90;;;;;;4768922;30;20439;-84
2021/11/08 00:13:05;;;;;;;11.13;7.82;;;5.50;99.90;;;;;;4769458;29;20412;-83
2021/11/08 00:18:26;;;;;;;7.60;6.25;;;5.50;99.90;;;;;;4751284;30;20145;-84
2021/11/08 00:20:55;;;;;;;;;;;5.50;99.90;;;;;;4752522;30;20060;-84
2021/11/08 00:23:24;;;;;;;7.35;5.97;;;5.50;99.90;;;;;;4751817;30;19930;-84
2021/11/08 00:25:51;;;;;;;9.52;6.85;;;5.50;99.90;;;;;;4751693;30;20411;-84
2021/11/08 00:28:20;;;;;;;10.45;6.28;;;5.50;99.90;;;;;;4751666;30;20066;-84
2021/11/08 00:30:50;;;;;;;7.15;4.75;;;5.50;99.90;;;;;;4764162;30;20048;-84
2021/11/08 00:33:19;;;;;;;8.52;6.60;;;5.40;99.90;;;;;;4768751;29;20051;-84
2021/11/08 00:35:52;;;;;;;9.90;5.78;;;5.50;99.90;;;;;;4769543;30;20056;-84
2021/11/08 00:38:20;;;;;;;12.68;7.05;;;5.50;99.90;;;;;;4769117;30;20506;-84
2021/11/08 00:40:48;;;;;;;11.82;7.15;;;5.50;99.90;;;;;;4769282;30;20079;-84
2021/11/08 00:43:18;;;;;;;10.50;5.97;;;5.40;99.90;;;;;;4769042;30;20418;-84
2021/11/08 00:45:46;;;;;;;8.68;6.35;;;5.40;99.90;;;;;;4767703;30;20044;-84
2021/11/08 00:48:16;;;;;;;7.28;6.07;;;5.40;99.90;;;;;;4754442;30;20401;-84
2021/11/08 00:50:45;;;;;;;9.40;5.28;;;5.40;99.90;;;;;;4733545;30;20049;-84
2021/11/08 00:53:13;;;;;;;10.02;6.20;;;5.40;99.90;;;;;;4717893;30;20640;-84
2021/11/08 00:55:44;;;;;;;8.93;7.03;;;5.40;99.90;;;;;;4733945;30;20059;-84
2021/11/08 00:58:19;;;;;;;9.20;5.85;;;5.40;99.90;;;;;;4733195;30;20049;-84
2021/11/08 01:00:46;;;;;;;10.52;6.40;;;5.40;99.90;;;;;;4733458;30;20064;-84
2021/11/08 01:03:17;;;;;;;7.55;6.70;;;5.40;99.90;;;;;;4732914;30;20049;-84
2021/11/08 01:05:45;;;;;;;10.73;8.63;;;5.40;99.90;;;;;;4733631;30;20132;-85
2021/11/08 01:08:13;;;;;;;6.97;6.28;;;5.40;99.90;;;;;;4732433;30;20059;-84
2021/11/08 01:10:41;;;;;;;7.57;5.72;;;5.40;99.90;;;;;;4732919;30;20613;-84
2021/11/08 01:13:08;;;;;;;10.45;6.72;;;5.40;99.90;;;;;;4732884;30;20060;-85
2021/11/08 01:15:36;;;;;;;10.70;5.72;;;5.40;99.90;;;;;;4733502;30;20396;-84
2021/11/08 01:18:04;;;;;;;8.30;7.25;;;5.50;99.90;;;;;;4732642;30;20057;-85
2021/11/08 01:20:34;;;;;;;10.23;5.82;;;5.40;99.90;;;;;;4733293;30;20052;-84
2021/11/08 01:23:04;;;;;;;10.05;6.63;;;5.50;99.90;;;;;;4733078;30;20075;-85
2021/11/08 01:25:33;;;;;;;7.57;5.85;;;5.50;99.90;;;;;;4732725;30;20055;-84
2021/11/08 01:28:04;;;;;;;10.18;6.05;;;5.40;99.90;;;;;;4733284;30;20068;-85
2021/11/08 01:30:33;;;;;;;6.88;5.78;;;5.50;99.90;;;;;;4754462;30;20063;-85
2021/11/08 01:35:37;;;;;;;8.60;5.88;;;5.40;99.90;;;;;;4768794;30;20048;-84
2021/11/08 01:38:13;;;;;;;7.45;5.20;;;5.50;99.90;;;;;;4768036;30;20058;-84
2021/11/08 01:40:42;;;;;;;6.97;5.90;;;5.40;99.90;;;;;;4768400;30;20052;-85
2021/11/08 01:43:11;;;;;;;6.90;5.55;;;5.40;99.90;;;;;;4767966;29;20517;-85
2021/11/08 01:45:40;;;;;;;8.23;6.72;;;5.40;99.90;;;;;;4768008;30;20047;-84
2021/11/08 01:48:10;;;;;;;8.57;5.45;;;5.50;99.90;;;;;;4767906;30;20047;-84
2021/11/08 01:50:41;;;;;;;7.88;6.40;;;5.30;99.90;;;;;;4767666;30;20051;-84
2021/11/08 01:53:09;;;;;;;9.90;7.07;;;5.40;99.90;;;;;;4767953;30;20059;-84
2021/11/08 01:55:37;;;;;;;8.63;5.20;;;5.30;99.90;;;;;;4768349;30;20059;-85
2021/11/08 01:58:05;;;;;;;8.05;5.53;;;5.40;99.90;;;;;;4767585;30;20055;-84
2021/11/08 02:00:34;;;;;;;7.82;5.10;;;5.30;99.90;;;;;;4768097;30;20064;-84
2021/11/08 02:03:01;;;;;;;15.55;5.50;;;5.30;99.90;;;;;;4766957;29;20562;-84
2021/11/08 02:05:30;;;;;;;6.82;6.05;;;5.30;99.90;;;;;;4767754;30;20518;-84
2021/11/08 02:08:00;;;;;;;7.30;4.67;;;5.30;99.90;;;;;;4768213;30;20043;-85
2021/11/08 02:10:28;;;;;;;6.47;5.68;;;5.50;99.90;;;;;;4767426;30;20510;-84
2021/11/08 02:12:57;;;;;;;6.55;4.57;;;5.40;99.90;;;;;;4767990;30;20728;-85
2021/11/08 02:15:24;;;;;;;8.05;6.85;;;5.30;99.90;;;;;;4737249;29;20048;-85
2021/11/08 02:17:52;;;;;;;8.65;6.43;;;5.30;99.90;;;;;;4731702;30;20045;-84
2021/11/08 02:20:30;;;;;;;10.35;6.00;;;5.40;99.90;;;;;;4731862;30;20057;-84
2021/11/08 02:23:01;;;;;;;14.68;7.55;;;5.30;99.90;;;;;;4732199;30;20057;-84
2021/11/08 02:25:30;;;;;;;7.00;5.13;;;5.40;99.90;;;;;;4732222;30;20136;-84
2021/11/08 02:27:58;;;;;;;7.35;6.57;;;5.40;99.90;;;;;;4732206;30;20492;-84
2021/11/08 02:30:28;;;;;;;6.10;5.55;;;5.40;99.90;;;;;;4751906;30;20047;-84
2021/11/08 02:32:58;;;;;;;7.88;6.25;;;5.40;99.90;;;;;;4751600;30;20491;-85
2021/11/08 02:35:26;;;;;;;10.27;5.43;;;5.40;99.90;;;;;;4765927;30;20052;-84
2021/11/08 02:37:54;;;;;;;10.25;5.68;;;5.30;99.90;;;;;;4767689;30;20048;-84
2021/11/08 02:40:25;;;;;;;8.23;7.05;;;5.30;99.90;;;;;;4766567;30;20090;-84
2021/11/08 02:42:57;;;;;;;8.38;7.57;;;5.30;99.90;;;;;;4751111;29;20052;-84
2021/11/08 02:45:27;;;;;;;6.57;5.60;;;5.30;99.90;;;;;;4767234;30;20048;-84
2021/11/08 02:47:55;;;;;;;6.93;5.80;;;5.30;99.90;;;;;;4757764;30;20056;-84
2021/11/08 02:50:28;;;;;;;9.35;6.28;;;5.30;99.90;;;;;;4731734;30;20507;-84
2021/11/08 02:52:56;;;;;;;8.20;6.20;;;5.40;99.90;;;;;;4732372;30;20055;-84
2021/11/08 02:55:26;;;;;;;7.45;5.85;;;5.20;99.90;;;;;;4731617;30;20523;-84
2021/11/08 02:57:55;;;;;;;6.85;5.68;;;5.20;99.90;;;;;;4731797;30;20061;-85
2021/11/08 03:00:26;;;;;;;8.75;6.13;;;5.20;99.90;;;;;;4732212;30;20063;-84
2021/11/08 03:02:55;;;;;;;7.78;5.50;;;5.30;99.90;;;;;;4731254;30;20052;-85
2021/11/08 03:05:37;;;;;;;8.57;5.07;;;5.20;99.90;;;;;;4716280;30;20055;-84
2021/11/08 03:08:09;;;;;;;9.18;6.13;;;5.20;99.90;;;;;;4732369;30;20053;-84
2021/11/08 03:10:40;;;;;;;7.70;6.68;;;5.20;99.90;;;;;;4731726;30;20411;-84
2021/11/08 03:13:14;;;;;;;8.10;5.60;;;5.30;99.90;;;;;;4731600;30;20048;-84
2021/11/08 03:18:45;;;;;;;6.13;5.18;;;5.20;99.90;;;;;;4730646;30;20056;-84
2021/11/08 03:21:13;;;;;;;9.48;6.20;;;5.10;99.90;;;;;;4741556;30;20499;-84
2021/11/08 03:23:43;;;;;;;10.88;6.70;;;5.10;99.90;;;;;;4749728;30;20079;-84
2021/11/08 03:26:34;;;;;;;6.72;5.97;;;5.10;99.90;;;;;;4730292;30;20051;-84
2021/11/08 03:29:02;;;;;;;10.73;6.05;;;5.10;99.90;;;;;;4731158;30;20416;-84
2021/11/08 03:31:30;;;;;;;7.65;6.75;;;5.10;99.90;;;;;;4752141;30;20502;-84
2021/11/08 03:33:58;;;;;;;8.07;5.93;;;5.10;99.90;;;;;;4750911;29;20059;-84
2021/11/08 03:36:26;;;;;;;7.65;6.78;;;5.10;99.90;;;;;;4751730;30;20056;-84
2021/11/08 03:38:55;;;;;;;11.07;7.47;;;5.10;99.90;;;;;;4721884;30;20526;-84
2021/11/08 03:41:22;;;;;;;13.15;8.15;;;5.10;99.90;;;;;;4752376;29;20059;-84
2021/11/08 03:43:50;;;;;;;6.72;5.63;;;5.10;99.90;;;;;;4751307;30;20059;-89
2021/11/08 03:46:18;;;;;;;10.32;7.60;;;5.20;99.90;;;;;;4752108;30;20060;-82
2021/11/08 03:48:46;;;;;;;11.35;6.30;;;5.00;99.90;;;;;;4750831;30;20052;-83
2021/11/08 03:51:14;;;;;;;9.05;6.50;;;5.00;99.90;;;;;;4752023;30;20063;-85
2021/11/08 03:53:42;;;;;;;10.75;7.38;;;5.00;99.90;;;;;;4752210;29;20056;-84
2021/11/08 03:56:10;;;;;;;9.57;5.55;;;5.00;99.90;;;;;;4752692;30;20056;-84
2021/11/08 03:58:37;;;;;;;10.18;6.03;;;5.10;99.90;;;;;;4765483;30;20436;-85
2021/11/08 04:01:06;;;;;;;6.97;6.07;;;5.10;99.90;;;;;;4765518;29;20482;-84
2021/11/08 04:03:34;;;;;;;11.95;6.85;;;5.10;99.90;;;;;;4752185;30;20652;-84
2021/11/08 04:06:03;;;;;;;8.50;6.65;;;5.10;99.90;;;;;;4751826;30;20397;-85
2021/11/08 04:08:31;;;;;;;10.45;7.32;;;5.10;99.90;;;;;;4752506;30;20052;-84
2021/11/08 04:10:58;;;;;;;10.07;7.53;;;5.10;99.90;;;;;;4750712;30;20415;-83
2021/11/08 04:13:30;;;;;;;5.93;5.15;;;5.10;99.90;;;;;;4751047;30;20055;-82
2021/11/08 04:16:02;;;;;;;7.80;6.95;;;5.10;99.90;;;;;;4734513;30;20049;-84
2021/11/08 04:18:31;;;;;;;7.25;6.25;;;5.10;99.90;;;;;;4717903;30;20523;-84
2021/11/08 04:21:01;;;;;;;11.25;6.55;;;5.10;99.90;;;;;;4733742;30;20057;-82
2021/11/08 04:23:29;;;;;;;9.70;5.97;;;5.10;99.90;;;;;;4734617;30;20408;-84
2021/11/08 04:26:02;;;;;;;8.98;6.80;;;5.00;99.90;;;;;;4734112;30;20063;-83
2021/11/08 04:28:31;;;;;;;11.02;5.25;;;5.00;99.90;;;;;;4733165;30;20059;-84
2021/11/08 04:30:59;;;;;;;7.63;6.15;;;5.00;99.90;;;;;;4761445;30;20070;-79
2021/11/08 04:33:33;;;;;;;8.23;6.32;;;5.10;99.90;;;;;;4752774;29;20055;-82
2021/11/08 04:38:52;;;;;;;7.00;5.22;;;5.00;99.90;;;;;;4769352;30;20055;-82
2021/11/08 04:44:23;;;;;;;10.68;7.40;;;5.00;99.90;;;;;;4769304;30;20056;-83
2021/11/08 05:30:12;;;;;;;9.85;5.25;;;4.80;99.90;;;;;;4746388;30;20048;-84
2021/11/08 05:32:46;;;;;;;7.20;6.05;;;4.70;99.90;;;;;;4748271;30;20052;-84
2021/11/08 05:35:16;;;;;;;8.38;6.47;;;4.70;99.90;;;;;;4748477;30;20063;-88
2021/11/08 05:37:45;;;;;;;7.72;4.75;;;4.50;99.90;;;;;;4750204;30;20052;-88
2021/11/08 05:40:20;;;;;;;36.88;9.23;;;4.50;99.90;;;;;;4748729;30;20411;-87
2021/11/08 05:42:49;;;;;;;6.72;4.97;;;4.40;99.90;;;;;;4748145;30;20055;-88
2021/11/08 05:45:20;;;;;;;5.72;4.75;;;4.30;99.90;;;;;;4746657;30;20547;-87
2021/11/08 05:47:50;;;;;;;9.95;5.93;;;4.20;99.90;;;;;;4747195;30;20055;-90
2021/11/08 05:50:21;;;;;;;8.15;5.63;;;4.10;99.90;;;;;;4760709;30;20040;-80
2021/11/08 05:52:51;;;;;;;10.13;7.03;;;4.10;99.90;;;;;;4749515;30;20055;-80
2021/11/08 05:55:27;;;;;;;12.90;5.85;;;4.00;99.90;;;;;;4760098;30;20055;-80
2021/11/08 05:58:08;;;;;;;10.82;6.07;;;4.00;99.90;;;;;;4746584;30;20059;-80
2021/11/08 06:50:40;;;;;;;13.80;8.88;;;2.80;99.90;;;;;;4736960;30;20495;-80
2021/11/08 06:53:16;;;;;;;13.93;9.82;;;2.80;99.90;;;;;;4760644;30;21046;-80
2021/11/08 06:55:48;;;;;;;11.63;7.72;;;3.10;99.90;;;;;;4749452;30;20067;-80
2021/11/08 06:58:19;;;;;;;74.07;10.50;;;3.20;99.90;;;;;;4760388;30;20440;-80
2021/11/08 07:00:47;;;;;;;8.27;5.22;;;2.90;99.90;;;;;;4739692;30;20491;-80
2021/11/08 07:03:16;;;;;;;10.20;5.88;;;2.60;99.90;;;;;;4747523;30;20892;-79
2021/11/08 07:05:43;;;;;;;9.95;6.68;;;2.30;99.90;;;;;;4737374;30;20052;-80
2021/11/08 07:08:11;;;;;;;12.70;7.40;;;2.30;99.90;;;;;;4753347;30;20055;-80
2021/11/08 07:10:39;;;;;;;15.40;7.78;;;2.40;99.90;;;;;;4752735;30;20060;-80
2021/11/08 07:13:12;;;;;;;8.07;6.55;;;2.40;99.90;;;;;;4765618;30;20067;-80
2021/11/08 07:15:41;;;;;;;34.38;7.10;;;2.60;99.90;;;;;;4739345;30;20062;-80
2021/11/08 07:18:15;;;;;;;10.05;7.00;;;2.70;99.90;;;;;;4752240;30;20411;-80
2021/11/08 07:20:43;;;;;;;9.07;5.97;;;2.90;99.90;;;;;;4737361;30;20048;-80
2021/11/08 07:23:11;;;;;;;17.08;9.50;;;3.10;99.90;;;;;;4752805;30;20052;-80
2021/11/08 07:25:39;;;;;;;23.85;7.18;;;3.20;99.90;;;;;;4752574;30;20048;-80
2021/11/08 07:28:11;;;;;;;20.33;7.85;;;3.30;99.90;;;;;;4750905;30;20060;-80
2021/11/08 07:30:42;;;;;;;28.42;7.25;;;3.20;99.90;;;;;;4761989;30;20059;-82
2021/11/08 07:33:10;;;;;;;17.08;6.30;;;3.30;99.90;;;;;;4770026;29;20051;-81
2021/11/08 07:35:38;;;;;;;33.65;6.97;;;3.10;99.90;;;;;;4770774;30;20063;-81
2021/11/08 07:38:06;;;;;;;9.82;6.15;;;3.20;99.90;;;;;;4770172;30;20055;-82
2021/11/08 07:40:34;;;;;;;58.75;8.48;;;3.30;99.90;;;;;;4770278;30;20059;-81
2021/11/08 07:43:02;;;;;;;36.13;10.45;;;3.50;99.90;;;;;;4769918;29;20098;-82
2021/11/08 07:45:30;;;;;;;15.30;6.43;;;3.60;99.90;;;;;;4770072;30;20054;-82
2021/11/08 07:47:57;;;;;;;10.77;5.65;;;3.60;99.90;;;;;;4770137;30;20055;-82
2021/11/08 07:50:38;;;;;;;13.45;6.95;;;3.60;99.90;;;;;;4768414;29;20048;-81
2021/11/08 07:53:07;;;;;;;9.45;7.55;;;3.70;99.90;;;;;;4768608;29;20056;-81
2021/11/08 07:55:36;;;;;;;10.07;6.07;;;3.90;99.90;;;;;;4770348;30;20048;-81
2021/11/08 07:58:05;;;;;;;12.10;6.78;;;4.00;99.90;;;;;;4769609;30;20062;-81
2021/11/08 08:00:40;;;;;;;8.60;5.82;;;4.20;99.90;;;;;;4753597;30;20059;-81
2021/11/08 08:03:10;;;;;;;11.10;7.30;;;4.20;99.90;;;;;;4768626;29;20534;-80
2021/11/08 08:05:38;;;;;;;11.85;7.50;;;4.30;99.90;;;;;;4745611;30;20052;-85
2021/11/08 08:08:07;;;;;;;8.20;6.55;;;4.40;99.90;;;;;;4751932;30;20052;-84
2021/11/08 08:10:35;;;;;;;21.77;7.78;;;4.80;99.90;;;;;;4753125;30;20055;-88
2021/11/08 08:13:03;;;;;;;10.98;6.70;;;5.00;99.90;;;;;;4736658;30;20044;-84
2021/11/08 08:15:32;;;;;;;10.45;7.35;;;5.20;99.90;;;;;;4737597;30;20060;-83
2021/11/08 08:18:00;;;;;;;10.15;6.35;;;5.30;99.90;;;;;;4749175;30;20051;-85
2021/11/08 08:20:32;;;;;;;14.43;9.07;;;5.40;99.90;;;;;;4752492;30;20098;-84
2021/11/08 08:23:00;;;;;;;10.60;6.30;;;5.40;99.90;;;;;;4736014;30;20064;-85
2021/11/08 08:25:28;;;;;;;17.73;8.65;;;5.50;99.90;;;;;;4751653;30;20052;-84
2021/11/08 08:27:58;;;;;;;9.70;6.55;;;5.60;99.90;;;;;;4751874;30;20071;-85
2021/11/08 08:30:27;;;;;;;13.77;6.72;;;5.70;99.90;;;;;;4739633;30;20055;-85
2021/11/08 08:32:55;;;;;;;6.80;6.20;;;5.80;99.90;;;;;;4765312;30;20052;-84
2021/11/08 08:35:24;;;;;;;12.00;5.68;;;5.80;99.90;;;;;;4751560;30;20052;-84
2021/11/08 08:37:52;;;;;;;9.15;4.82;;;5.60;99.90;;;;;;4742208;30;20055;-84
2021/11/08 08:40:20;;;;;;;8.52;4.38;;;5.60;99.90;;;;;;4747752;30;20059;-84
2021/11/08 08:42:48;;;;;;;10.00;4.00;;;5.90;99.90;;;;;;4749411;30;20055;-84
2021/11/08 08:45:16;;;;;;;11.40;6.72;;;6.00;99.90;;;;;;4735431;30;20064;-84
2021/11/08 08:47:44;;;;;;;6.10;3.75;;;6.20;99.90;;;;;;4751305;30;20051;-85
2021/11/08 08:50:12;;;;;;;5.25;4.45;;;6.30;99.90;;;;;;4751080;30;20079;-84
2021/11/08 08:52:42;;;;;;;10.73;5.88;;;6.10;99.90;;;;;;4751757;30;20514;-84
2021/11/08 08:55:10;;;;;;;6.78;5.68;;;6.10;99.90;;;;;;4750824;30;20067;-84
2021/11/08 08:57:38;;;;;;;13.18;5.50;;;6.40;99.90;;;;;;4750480;30;20503;-84
2021/11/08 09:00:10;;;;;;;6.22;5.72;;;6.50;99.90;;;;;;4749975;30;20737;-84
2021/11/08 09:02:53;;;;;;;9.77;4.72;;;6.60;99.90;;;;;;4750527;30;20155;-86
2021/11/08 09:05:25;;;;;;;15.48;4.63;;;6.70;99.90;;;;;;4741082;30;20044;-85
2021/11/08 09:07:54;;;;;;;6.88;3.97;;;6.60;99.90;;;;;;4750309;30;20376;-85
2021/11/08 09:10:26;;;;;;;4.72;4.13;;;6.70;99.90;;;;;;4764097;30;20063;-85
2021/11/08 09:12:56;;;;;;;14.77;5.45;;;6.60;99.90;;;;;;4737624;30;20403;-85
2021/11/08 09:15:26;;;;;;;6.95;4.30;;;6.10;99.90;;;;;;4749405;30;20384;-84
2021/11/08 09:17:55;;;;;;;10.40;5.18;;;5.90;99.90;;;;;;4749089;30;20048;-86
2021/11/08 09:20:23;;;;;;;9.18;5.65;;;5.70;99.90;;;;;;4749940;30;20060;-85
2021/11/08 09:22:51;;;;;;;6.30;4.10;;;6.40;99.90;;;;;;4748966;30;20060;-85
2021/11/08 09:25:21;;;;;;;8.55;4.18;;;7.10;99.90;;;;;;4744629;30;20056;-84
2021/11/08 09:27:57;;;;;;;14.17;4.73;;;7.40;99.90;;;;;;4717975;30;20069;-84
2021/11/08 09:30:29;;;;;;;11.27;4.40;;;7.40;99.90;;;;;;4747942;30;20654;-85
2021/11/08 09:32:57;;;;;;;10.35;4.72;;;7.30;99.90;;;;;;4734988;30;20407;-86
2021/11/08 09:35:31;;;;;;;12.48;5.53;;;7.30;99.90;;;;;;4756129;30;20060;-86
2021/11/08 09:38:02;;;;;;;10.38;5.93;;;7.30;99.90;;;;;;4743831;30;20044;-86
2021/11/08 09:40:30;;;;;;;10.27;2.90;;;7.20;99.90;;;;;;4751002;30;20064;-86
2021/11/08 09:42:59;;;;;;;15.40;4.60;;;7.30;99.90;;;;;;4750070;30;20055;-87
2021/11/08 09:45:27;;;;;;;9.38;2.40;;;7.30;99.90;;;;;;4750436;30;20048;-86
2021/11/08 09:47:55;;;;;;;12.13;3.33;;;7.30;99.90;;;;;;4750273;30;20052;-86
2021/11/08 09:50:29;;;;;;;19.30;3.72;;;7.30;99.90;;;;;;4746439;30;20055;-86
2021/11/08 09:52:59;;;;;;;9.43;3.33;;;7.20;99.90;;;;;;4750999;30;20060;-85
2021/11/08 09:55:27;;;;;;;6.85;2.72;;;7.30;99.90;;;;;;4718369;30;20068;-85
2021/11/08 09:57:56;;;;;;;8.18;3.15;;;7.10;99.90;;;;;;4742176;30;20427;-85
2021/11/08 10:01:00;;;;;;;10.02;3.72;;;7.00;99.90;;;;;;4731224;30;20057;-86
2021/11/08 10:03:31;;;;;;;5.68;2.17;;;7.00;99.90;;;;;;4731671;30;20522;-86
2021/11/08 10:06:00;;;;;;;3.83;3.35;;;7.00;99.90;;;;;;4732707;30;20091;-87
2021/11/08 10:08:32;;;;;;;5.03;2.60;;;7.20;99.90;;;;;;4740020;30;20063;-86
2021/11/08 10:11:05;;;;;;;8.35;3.90;;;7.20;99.90;;;;;;4748617;30;20073;-85
2021/11/08 10:13:37;;;;;;;6.57;3.25;;;7.30;99.90;;;;;;4747118;30;20073;-86
2021/11/08 10:16:08;;;;;;;10.50;3.88;;;7.30;99.90;;;;;;4724381;30;20483;-86
2021/11/08 10:18:37;;;;;;;7.03;2.45;;;7.60;99.90;;;;;;4744616;30;20070;-86
2021/11/08 10:21:13;;;;;;;3.42;2.50;;;8.20;99.90;;;;;;4731953;30;20499;-86
2021/11/08 10:23:45;;;;;;;4.93;3.20;;;8.40;99.90;;;;;;4732795;30;20060;-86
2021/11/08 10:26:23;;;;;;;7.50;3.90;;;8.60;99.90;;;;;;4702029;30;20055;-86
2021/11/08 10:29:13;;;;;;;6.18;3.03;;;8.80;99.90;;;;;;4732670;30;20052;-87
2021/11/08 10:31:55;;;;;;;5.82;2.92;;;8.80;99.90;;;;;;4764545;30;20060;-87
2021/11/08 10:34:29;;;;;;;5.55;2.42;;;8.60;99.90;;;;;;4755251;30;20442;-86
2021/11/08 10:37:03;;;;;;;5.30;4.28;;;8.30;99.90;;;;;;4737059;30;20053;-85
2021/11/08 10:39:39;;;;;;;19.70;4.47;;;7.90;99.90;;;;;;4731354;30;20091;-86
2021/11/08 10:42:07;;;;;;;13.85;4.57;;;7.20;99.90;;;;;;4748502;30;20052;-85
2021/11/08 10:44:35;;;;;;;13.68;3.33;;;7.00;99.90;;;;;;4733902;30;20044;-86
2021/11/08 10:47:07;;;;;;;10.35;4.25;;;6.90;99.90;;;;;;4745075;30;20059;-85
2021/11/08 10:49:43;;;;;;;10.18;3.00;;;6.80;99.90;;;;;;4743896;30;20044;-86
2021/11/08 10:52:17;;;;;;;6.57;2.72;;;6.60;99.90;;;;;;4749702;30;20079;-86
2021/11/08 10:54:54;;;;;;;2.88;2.63;;;6.50;99.90;;;;;;4748127;30;20056;-86
2021/11/08 10:57:25;;;;;;;7.15;4.45;;;6.60;99.90;;;;;;4731560;30;20055;-86
2021/11/08 10:59:55;;;;;;;16.40;3.72;;;6.60;99.90;;;;;;4748405;30;20048;-86
2021/11/08 11:02:26;;;;;;;6.80;3.75;;;6.50;99.90;;;;;;4747694;30;20052;-85
2021/11/08 11:05:02;;;;;;;5.05;3.22;;;6.50;99.90;;;;;;4749710;30;20071;-85
2021/11/08 11:07:37;;;;;;;6.93;4.07;;;6.50;99.90;;;;;;4745603;30;20056;-86
2021/11/08 11:10:09;;;;;;;8.18;4.07;;;6.70;99.90;;;;;;4746548;30;20059;-85
2021/11/08 11:12:42;;;;;;;15.07;5.10;;;6.70;99.90;;;;;;4752068;30;20055;-85
2021/11/08 11:15:15;;;;;;;8.00;2.78;;;6.70;99.90;;;;;;4730275;30;20048;-86
2021/11/08 11:17:51;;;;;;;4.90;3.47;;;6.70;99.90;;;;;;4745573;30;20056;-85
2021/11/08 11:20:25;;;;;;;9.23;5.03;;;6.50;99.90;;;;;;4749515;30;20060;-85
2021/11/08 11:23:05;;;;;;;7.10;2.38;;;6.40;99.90;;;;;;4739178;30;20052;-85
2021/11/08 11:25:38;;;;;;;7.28;5.05;;;6.50;99.90;;;;;;4756518;30;20061;-85
2021/11/08 11:28:08;;;;;;;12.57;6.60;;;6.50;99.90;;;;;;4747016;30;20067;-86
2021/11/08 11:30:38;;;;;;;8.00;2.97;;;6.60;99.90;;;;;;4757479;30;20059;-85
2021/11/08 11:33:19;;;;;;;10.02;3.58;;;6.50;99.90;;;;;;4746271;30;20044;-86
2021/11/08 11:36:00;;;;;;;5.35;3.10;;;6.50;99.90;;;;;;4747488;30;20052;-85
2021/11/08 11:38:34;;;;;;;9.83;3.47;;;6.40;99.90;;;;;;4747957;30;20055;-84
2021/11/08 11:41:06;;;;;;;9.27;3.40;;;6.60;99.90;;;;;;4762124;30;20302;-86
2021/11/08 11:43:38;;;;;;;5.82;4.57;;;6.60;99.90;;;;;;4749447;30;20056;-86
2021/11/08 11:46:11;;;;;;;10.10;3.88;;;6.80;99.90;;;;;;4747741;30;20052;-86
2021/11/08 11:48:39;;;;;;;10.55;5.05;;;6.80;99.90;;;;;;4749286;30;20059;-86
2021/11/08 11:51:10;;;;;;;6.35;3.97;;;6.90;99.90;;;;;;4748407;30;20051;-79
2021/11/08 11:53:38;;;;;;;4.13;3.72;;;6.80;99.90;;;;;;4751561;30;20048;-86
2021/11/08 11:56:06;;;;;;;9.75;6.60;;;6.80;99.90;;;;;;4752755;30;20055;-86
2021/11/08 11:58:35;;;;;;;10.43;2.55;;;6.80;99.90;;;;;;4750032;30;20048;-87
2021/11/08 12:01:05;;;;;;;11.60;3.35;;;6.80;99.90;;;;;;4751272;30;20052;-86
2021/11/08 12:03:33;;;;;;;10.95;3.15;;;6.80;99.90;;;;;;4752328;30;20052;-86
2021/11/08 12:06:03;;;;;;;12.70;3.70;;;6.90;99.90;;;;;;4752278;30;20051;-86
2021/11/08 12:08:38;;;;;;;6.40;3.58;;;7.10;99.90;;;;;;4752411;30;20055;-87
2021/11/08 12:11:07;;;;;;;11.52;3.45;;;7.30;99.90;;;;;;4750502;30;20056;-86
2021/11/08 12:13:40;;;;;;;11.43;6.00;;;7.40;99.90;;;;;;4734668;30;20055;-86
2021/11/08 12:16:15;;;;;;;6.53;2.75;;;7.50;99.90;;;;;;4746487;30;20124;-86
2021/11/08 12:18:45;;;;;;;6.97;3.20;;;7.70;99.90;;;;;;4751262;30;20491;-87
2021/11/08 12:21:25;;;;;;;10.15;4.22;;;7.70;99.90;;;;;;4735837;30;20048;-86
2021/11/08 12:23:55;;;;;;;7.05;4.88;;;7.80;99.90;;;;;;4752634;30;20055;-87
2021/11/08 12:26:29;;;;;;;7.30;3.35;;;7.70;99.90;;;;;;4736878;30;20498;-87
2021/11/08 12:29:16;;;;;;;12.75;4.00;;;7.70;99.90;;;;;;4751374;30;20059;-86
2021/11/08 12:31:45;;;;;;;9.32;4.45;;;7.90;99.90;;;;;;4740571;30;20060;-86
2021/11/08 12:34:20;;;;;;;11.07;3.72;;;7.80;99.90;;;;;;4750174;30;20052;-87
2021/11/08 12:36:58;;;;;;;4.93;3.90;;;7.90;99.90;;;;;;4736171;30;20060;-87
2021/11/08 12:39:27;;;;;;;8.15;2.67;;;7.90;99.90;;;;;;4750127;30;20419;-86
2021/11/08 12:42:02;;;;;;;7.03;2.15;;;7.90;99.90;;;;;;4752495;30;20538;-87
2021/11/08 12:44:44;;;;;;;5.00;4.00;;;7.80;99.90;;;;;;4752752;30;20056;-87
2021/11/08 12:47:14;;;;;;;2.88;2.00;;;7.80;99.90;;;;;;4735607;30;20406;-86
2021/11/08 12:49:50;;;;;;;7.53;2.92;;;7.80;99.90;;;;;;4765104;30;20070;-86
2021/11/08 12:52:26;;;;;;;4.70;3.78;;;7.80;99.90;;;;;;4750614;30;20057;-86
2021/11/08 12:54:55;;;;;;;6.93;3.10;;;7.90;99.90;;;;;;4735645;30;20044;-87
2021/11/08 12:57:25;;;;;;;3.50;2.20;;;8.00;99.90;;;;;;4749550;30;20051;-85
2021/11/08 13:00:00;;;;;;;10.88;2.50;;;8.10;99.90;;;;;;4735531;30;20055;-86
2021/11/08 13:02:42;;;;;;;6.45;2.78;;;8.30;99.90;;;;;;4763645;29;20071;-80
2021/11/08 13:05:11;;;;;;;;;;;8.40;99.90;;;;;;4765106;30;20060;-80
2021/11/08 13:07:42;;;;;;;7.60;2.38;;;8.50;99.90;;;;;;4734638;30;20383;-80
2021/11/08 13:10:31;;;;;;;4.95;2.97;;;8.40;99.90;;;;;;4755926;30;20067;-79
2021/11/08 13:13:00;;;;;;;4.03;3.63;;;8.30;99.90;;;;;;4720765;30;20060;-87
2021/11/08 13:15:30;;;;;;;6.47;2.80;;;8.20;99.90;;;;;;4750596;30;20052;-86
2021/11/08 13:17:58;;;;;;;16.55;4.72;;;8.30;99.90;;;;;;4723848;30;20048;-87
2021/11/08 13:20:29;;;;;;;11.63;4.32;;;8.00;99.90;;;;;;4743039;30;20083;-88
2021/11/08 13:23:03;;;;;;;3.35;2.88;;;7.70;99.90;;;;;;4736213;30;20056;-87
2021/11/08 13:25:43;;;;;;;3.92;2.60;;;7.50;99.90;;;;;;4716930;30;20045;-77
2021/11/08 13:28:18;;;;;;;9.57;3.87;;;7.60;99.90;;;;;;4733173;30;20071;-87
2021/11/08 13:30:49;;;;;;;3.53;3.22;;;7.90;99.90;;;;;;4756176;30;20056;-87
2021/11/08 13:33:21;;;;;;;3.05;2.50;;;7.70;99.90;;;;;;4737359;30;20055;-87
2021/11/08 13:35:54;;;;;;;4.72;2.75;;;7.30;99.90;;;;;;4738930;30;20052;-88
2021/11/08 13:38:28;;;;;;;7.18;2.47;;;7.00;99.90;;;;;;4737902;30;20055;-87
2021/11/08 13:41:09;;;;;;;6.97;3.10;;;6.90;99.90;;;;;;4781553;30;20548;-86
2021/11/08 13:43:47;;;;;;;13.82;5.53;;;6.70;99.90;;;;;;4747376;30;20403;-76
2021/11/08 13:46:26;;;;;;;9.80;3.72;;;6.70;99.90;;;;;;4749687;30;20510;-77
2021/11/08 13:48:59;;;;;;;10.52;4.07;;;6.60;99.90;;;;;;4751267;30;20059;-85
2021/11/08 13:51:32;;;;;;;8.53;3.20;;;6.60;99.90;;;;;;4733221;30;20052;-75
2021/11/08 13:54:04;;;;;;;22.42;3.17;;;6.60;99.90;;;;;;4749431;30;20056;-73
2021/11/08 13:56:35;;;;;;;4.55;2.63;;;6.70;99.90;;;;;;4750869;30;20402;-89
2021/11/08 13:59:06;;;;;;;;;;;6.90;99.90;;;;;;4738346;30;20048;-89
2021/11/08 14:01:37;;;;;;;8.68;4.43;;;7.00;99.90;;;;;;4753382;30;19933;-89
2021/11/08 14:04:07;;;;;;;5.25;2.10;;;7.10;99.90;;;;;;4723891;30;20060;-89
2021/11/08 14:06:41;;;;;;;6.03;2.25;;;7.00;99.90;;;;;;4731942;30;20055;-89
2021/11/08 14:09:11;;;;;;;11.52;3.38;;;6.80;99.90;;;;;;4741121;30;20063;-89
2021/11/08 14:11:41;;;;;;;10.98;2.85;;;6.70;99.90;;;;;;4738818;30;20133;-89
2021/11/08 14:14:18;;;;;;;9.25;3.15;;;6.60;99.90;;;;;;4753527;30;20064;-89
2021/11/08 14:16:48;;;;;;;4.88;2.95;;;6.60;99.90;;;;;;4754258;30;20068;-89
2021/11/08 14:19:17;;;;;;;5.55;2.80;;;6.60;99.90;;;;;;4752362;30;20056;-88
2021/11/08 14:21:47;;;;;;;10.15;3.60;;;6.50;99.90;;;;;;4739058;30;20059;-89
2021/11/08 14:24:18;;;;;;;8.25;2.55;;;6.30;99.90;;;;;;4740175;30;20052;-89
2021/11/08 14:26:50;;;;;;;3.30;2.45;;;6.30;99.90;;;;;;4752662;30;20052;-89
2021/11/08 14:29:21;;;;;;;6.38;3.20;;;6.20;99.90;;;;;;4737066;30;20479;-78
2021/11/08 14:31:59;;;;;;;5.93;2.40;;;6.30;99.90;;;;;;4768754;30;20049;-87
2021/11/08 14:34:32;;;;;;;7.18;3.13;;;6.30;99.90;;;;;;4752578;30;20056;-89
2021/11/08 14:37:12;;;;;;;6.03;4.32;;;6.40;99.90;;;;;;4751041;30;20063;-87
2021/11/08 14:39:42;;;;;;;8.68;3.83;;;6.50;99.90;;;;;;4735079;30;20064;-89
2021/11/08 14:42:10;;;;;;;6.63;3.80;;;6.50;99.90;;;;;;4735370;30;20423;-89
2021/11/08 14:44:41;;;;;;;4.28;3.60;;;6.60;99.90;;;;;;4736894;30;20068;-89
2021/11/08 14:47:27;;;;;;;8.82;4.82;;;6.50;99.90;;;;;;4752431;30;20048;-90
2021/11/08 14:50:11;;;;;;;4.68;3.40;;;6.50;99.90;;;;;;4734342;30;20423;-90
2021/11/08 14:52:42;;;;;;;7.68;3.83;;;6.50;99.90;;;;;;4733005;30;20068;-90
2021/11/08 14:55:16;;;;;;;3.85;3.47;;;6.40;99.90;;;;;;4734090;30;20064;-89
2021/11/08 14:57:50;;;;;;;4.90;3.92;;;6.50;99.90;;;;;;4749002;30;20052;-89
2021/11/08 15:00:22;;;;;;;6.53;3.15;;;6.40;99.90;;;;;;4737217;30;20055;-89
2021/11/08 15:02:51;;;;;;;;;;;6.20;99.90;;;;;;4735691;30;20079;-89